»·PEaware :: N19947 KCNO-KCRQ

N19947 :: KCNO-KCRQ

FLIGHT INFORMATION

Flight Status: Arrived
Operator: Privately registered:
United States
More flights under this callsign
Pilot: Adam A. (5112)
Aircraft: CESSNA 172 SKYHAWK
(C172)
More flights by this aircraft type
Origin: KCNO Chino
United States
Destination: KCRQ McClellan-Palomar
United States
More flights between these airports :: More routes between these airports
Route: PDZ V186 ROBNN V458 OCN
File this flight plan on PilotEdge
Remarks:
Altitude:
(Current/Filed)
7,000ft
Speed:
(Current/Filed)
120kts
Departed: 03-Nov-15 07:32 PM
Arrived: 03-Nov-15 08:13 PM
Distance/Time
Traveled:
54nm/0:41
Distance/Time
To Go:
Arrived

Flight Plot

Page will automatically refresh every two minutes.


Map Options




Map Legend


Flown Route
Filed Route
Departure Airport
Arrival Airport
Navaid (VOR, NDB)
Fix

Horizontal Profiles

Position Reports

Time Latitude Longitude Heading Altitude Ground
Speed
03-Nov-15 19:04 33.977510 -117.636164 127 653ft 0kts
03-Nov-15 19:05 33.977510 -117.636164 127 653ft 0kts
03-Nov-15 19:06 33.977510 -117.636164 127 653ft 0kts
03-Nov-15 19:07 33.977510 -117.636164 127 653ft 0kts
03-Nov-15 19:08 33.977510 -117.636164 127 653ft 0kts
03-Nov-15 19:09 33.977510 -117.636164 127 653ft 0kts
03-Nov-15 19:10 33.977510 -117.636164 127 653ft 0kts
03-Nov-15 19:11 33.977510 -117.636164 127 653ft 0kts
03-Nov-15 19:12 33.977510 -117.636164 127 653ft 0kts
03-Nov-15 19:13 33.977510 -117.636164 127 653ft 0kts
03-Nov-15 19:14 33.977510 -117.636164 127 653ft 0kts
03-Nov-15 19:15 33.977510 -117.636164 127 653ft 0kts
03-Nov-15 19:16 33.977510 -117.636164 127 653ft 0kts
03-Nov-15 19:17 33.977510 -117.636164 127 653ft 0kts
03-Nov-15 19:18 33.977510 -117.636164 127 653ft 0kts
03-Nov-15 19:19 33.977510 -117.636164 127 653ft 0kts
03-Nov-15 19:20 33.977510 -117.636164 127 653ft 0kts
03-Nov-15 19:21 33.977510 -117.636164 127 653ft 0kts
03-Nov-15 19:22 33.977510 -117.636164 127 653ft 0kts
03-Nov-15 19:23 33.977510 -117.636164 127 653ft 0kts
03-Nov-15 19:24 33.977510 -117.636164 127 653ft 0kts
03-Nov-15 19:25 33.977510 -117.636164 127 653ft 0kts
03-Nov-15 19:26 33.977510 -117.636164 127 653ft 0kts
03-Nov-15 19:27 33.976909 -117.635173 90 653ft 12kts
03-Nov-15 19:28 33.976705 -117.630835 178 653ft 0kts
03-Nov-15 19:29 33.976705 -117.630835 178 653ft 0kts
03-Nov-15 19:30 33.975822 -117.635757 270 674ft 69kts
03-Nov-15 19:31 33.974767 -117.658813 270 1596ft 69kts
03-Nov-15 19:32 33.973972 -117.683109 271 2423ft 78kts
03-Nov-15 19:33 33.971345 -117.708934 234 3242ft 84kts
03-Nov-15 19:34 33.955889 -117.698024 101 4072ft 78kts
03-Nov-15 19:35 33.951087 -117.675185 97 4779ft 77kts
03-Nov-15 19:36 33.944477 -117.646329 94 5328ft 97kts
03-Nov-15 19:37 33.937651 -117.615476 89 5950ft 92kts
03-Nov-15 19:38 33.931325 -117.586994 88 6638ft 85kts
03-Nov-15 19:39 33.925167 -117.558339 90 7084ft 105kts
03-Nov-15 19:40 33.911091 -117.524297 134 7077ft 132kts
03-Nov-15 19:41 33.880755 -117.498144 135 7075ft 135kts
03-Nov-15 19:42 33.849837 -117.472179 137 7072ft 136kts
03-Nov-15 19:43 33.818740 -117.446198 137 7075ft 136kts
03-Nov-15 19:44 33.787762 -117.420327 135 7071ft 136kts
03-Nov-15 19:45 33.756741 -117.394526 137 7076ft 136kts
03-Nov-15 19:46 33.726093 -117.369005 136 7075ft 136kts
03-Nov-15 19:47 33.694976 -117.343027 137 7074ft 136kts
03-Nov-15 19:48 33.663989 -117.317205 136 7074ft 136kts
03-Nov-15 19:49 33.632860 -117.291254 136 6937ft 142kts
03-Nov-15 19:50 33.600176 -117.264052 137 6354ft 144kts
03-Nov-15 19:51 33.567281 -117.236711 138 5759ft 143kts
03-Nov-15 19:52 33.536150 -117.210842 136 5573ft 131kts
03-Nov-15 19:53 33.506000 -117.185958 137 5567ft 133kts
03-Nov-15 19:54 33.475610 -117.161094 137 5570ft 134kts
03-Nov-15 19:55 33.447060 -117.141746 179 5561ft 141kts
03-Nov-15 19:56 33.414700 -117.146287 161 5480ft 133kts
03-Nov-15 19:57 33.383273 -117.125224 150 5487ft 128kts
03-Nov-15 19:58 33.352047 -117.107367 161 5391ft 130kts
03-Nov-15 19:59 33.319202 -117.093598 161 4917ft 131kts
03-Nov-15 20:00 33.286878 -117.080216 161 4411ft 120kts
03-Nov-15 20:01 33.255917 -117.067490 161 3905ft 117kts
03-Nov-15 20:02 33.225759 -117.055065 161 3491ft 115kts
03-Nov-15 20:03 33.196682 -117.043379 176 3481ft 112kts
03-Nov-15 20:04 33.172340 -117.062756 220 3489ft 114kts
03-Nov-15 20:05 33.158095 -117.094689 260 3431ft 122kts
03-Nov-15 20:06 33.151605 -117.135038 259 2763ft 127kts
03-Nov-15 20:07 33.145042 -117.175894 259 2069ft 116kts
03-Nov-15 20:08 33.139899 -117.207833 259 1510ft 91kts
03-Nov-15 20:09 33.135365 -117.235968 259 1034ft 80kts
03-Nov-15 20:10 33.131475 -117.260037 258 601ft 72kts
03-Nov-15 20:11 33.128594 -117.277912 258 334ft 26kts
03-Nov-15 20:12 33.127269 -117.281028 258 334ft 14kts
03-Nov-15 20:13 33.125776 -117.283302 177 334ft 1kts
03-Nov-15 20:14 33.125726 -117.283231 78 334ft 0kts
03-Nov-15 20:15 33.125726 -117.283231 78 334ft 0kts

Navigation Log

Ident Type
Flight plan parsing failed, navigation log unavailable